Time;durP1;ratioP1;P1;durP2;ratioP2;P2;SDS_P1;SDS_P2;PMS_P1;PMS_P2;Temp;Humidity;BMP_temperature;BMP_pressure;BME280_temperature;BME280_humidity;BME280_pressure;Samples;Min_cycle;Max_cycle;Signal;HPM_P1;HPM_P2
2022/04/20 00:01:24;;;;;;;7.97;2.70;;;4.60;90.50;;;;;;5078725;28;20048;-84
2022/04/20 00:03:50;;;;;;;4.18;2.35;;;4.50;90.70;;;;;;5078585;28;20433;-83
2022/04/20 00:06:16;;;;;;;4.10;2.63;;;4.50;90.80;;;;;;5090924;28;20065;-83
2022/04/20 00:08:41;;;;;;;3.60;2.70;;;4.50;90.80;;;;;;5074436;28;20028;-83
2022/04/20 00:11:08;;;;;;;4.57;2.85;;;4.50;90.80;;;;;;5076832;28;20432;-84
2022/04/20 00:13:34;;;;;;;3.22;2.63;;;4.50;90.80;;;;;;5076284;28;20017;-83
2022/04/20 00:16:00;;;;;;;3.67;2.85;;;4.50;90.90;;;;;;5070963;28;20100;-83
2022/04/20 00:18:26;;;;;;;5.50;3.05;;;4.40;91.00;;;;;;5088651;28;20031;-82
2022/04/20 00:20:52;;;;;;;4.25;3.45;;;4.40;91.10;;;;;;5079028;28;20024;-83
2022/04/20 00:23:18;;;;;;;3.75;3.10;;;4.40;91.20;;;;;;5083447;28;20044;-84
2022/04/20 00:25:43;;;;;;;4.53;3.55;;;4.40;91.50;;;;;;5084157;28;20058;-84
2022/04/20 00:28:09;;;;;;;4.63;3.10;;;4.30;91.70;;;;;;5085434;28;20028;-84
2022/04/20 00:30:35;;;;;;;3.58;3.28;;;4.30;91.90;;;;;;5084932;28;20027;-84
2022/04/20 00:33:00;;;;;;;5.38;3.42;;;4.20;92.10;;;;;;5084012;28;20025;-84
2022/04/20 00:35:27;;;;;;;4.18;3.10;;;4.10;92.30;;;;;;5082219;28;20096;-84
2022/04/20 00:37:52;;;;;;;4.88;3.40;;;4.10;92.60;;;;;;5079823;28;20100;-83
2022/04/20 00:40:18;;;;;;;3.00;2.72;;;4.00;92.70;;;;;;5060777;28;20024;-84
2022/04/20 00:42:44;;;;;;;6.47;3.88;;;3.90;92.90;;;;;;5077915;28;20441;-84
2022/04/20 00:45:12;;;;;;;3.90;3.08;;;3.90;93.10;;;;;;5077589;28;20039;-84
2022/04/20 00:47:44;;;;;;;4.55;3.83;;;3.90;93.30;;;;;;5051233;28;20028;-85
2022/04/20 00:50:12;;;;;;;4.63;3.97;;;3.80;93.40;;;;;;5060830;28;20032;-84
2022/04/20 00:52:38;;;;;;;5.15;4.30;;;3.80;93.60;;;;;;5077433;28;20444;-84
2022/04/20 00:55:06;;;;;;;5.68;3.42;;;3.80;93.70;;;;;;5077567;28;20466;-85
2022/04/20 00:57:32;;;;;;;4.50;3.75;;;3.80;93.80;;;;;;5059568;28;20028;-84
2022/04/20 01:00:01;;;;;;;5.05;3.50;;;3.80;93.90;;;;;;5066263;28;20048;-84
2022/04/20 01:02:31;;;;;;;6.53;3.80;;;3.70;94.00;;;;;;5079915;28;20150;-85
2022/04/20 01:04:57;;;;;;;4.20;3.78;;;3.70;94.20;;;;;;5078880;28;20020;-84
2022/04/20 01:07:22;;;;;;;4.43;3.42;;;3.70;94.30;;;;;;5081241;28;20469;-84
2022/04/20 01:09:51;;;;;;;6.70;3.60;;;3.60;94.40;;;;;;5085113;28;20044;-84
2022/04/20 01:12:18;;;;;;;4.68;3.65;;;3.60;94.50;;;;;;5060815;28;20107;-84
2022/04/20 01:14:44;;;;;;;5.38;3.40;;;3.50;94.60;;;;;;5077780;28;20072;-84
2022/04/20 01:17:10;;;;;;;4.45;3.45;;;3.50;94.80;;;;;;5051710;28;20052;-84
2022/04/20 01:19:40;;;;;;;5.68;3.95;;;3.40;94.70;;;;;;5080954;28;20087;-84
2022/04/20 01:22:07;;;;;;;4.07;3.55;;;3.40;94.90;;;;;;5060959;28;20426;-84
2022/04/20 01:24:35;;;;;;;4.45;3.40;;;3.40;95.00;;;;;;5061312;28;20021;-84
2022/04/20 01:27:01;;;;;;;4.75;3.42;;;3.40;95.20;;;;;;5079269;28;20031;-85
2022/04/20 01:29:28;;;;;;;4.45;3.85;;;3.40;95.20;;;;;;5084984;28;20013;-84
2022/04/20 01:31:54;;;;;;;7.97;3.42;;;3.40;95.10;;;;;;5094937;28;20131;-83
2022/04/20 01:34:24;;;;;;;5.07;4.07;;;3.30;95.20;;;;;;5077464;28;20028;-81
2022/04/20 01:36:55;;;;;;;5.35;3.67;;;3.20;95.30;;;;;;5075382;28;20465;-83
2022/04/20 01:39:21;;;;;;;4.45;3.90;;;3.20;95.30;;;;;;5078902;28;20194;-84
2022/04/20 01:41:47;;;;;;;3.30;3.00;;;3.20;95.40;;;;;;5061913;28;20040;-83
2022/04/20 01:44:12;;;;;;;6.95;4.38;;;3.10;95.50;;;;;;5077619;28;20465;-84
2022/04/20 01:46:39;;;;;;;5.18;3.97;;;3.10;95.60;;;;;;5070550;28;20122;-83
2022/04/20 01:49:05;;;;;;;5.43;4.07;;;3.10;95.60;;;;;;5059258;28;20064;-84
2022/04/20 01:54:15;;;;;;;6.53;3.90;;;3.10;95.70;;;;;;5062916;28;20047;-83
2022/04/20 01:56:43;;;;;;;5.68;3.88;;;3.10;95.70;;;;;;5077132;28;20036;-83
2022/04/20 01:59:10;;;;;;;6.28;4.82;;;3.10;95.90;;;;;;5090533;28;20094;-83
2022/04/20 02:04:21;;;;;;;4.25;3.85;;;3.10;95.70;;;;;;5077706;28;20048;-84
2022/04/20 02:06:50;;;;;;;5.35;4.25;;;3.00;95.70;;;;;;5082942;28;20024;-84
2022/04/20 02:09:20;;;;;;;5.45;4.35;;;3.00;95.80;;;;;;5081702;28;20033;-84
2022/04/20 02:11:47;;;;;;;5.50;3.85;;;2.90;95.90;;;;;;5064571;28;20127;-84
2022/04/20 02:14:13;;;;;;;5.72;4.47;;;2.90;96.00;;;;;;5065000;28;20056;-82
2022/04/20 02:16:39;;;;;;;6.45;4.80;;;2.90;96.00;;;;;;5068669;28;20009;-83
2022/04/20 02:19:05;;;;;;;4.28;3.75;;;2.80;96.30;;;;;;5057002;28;20029;-84
2022/04/20 02:21:31;;;;;;;5.60;4.68;;;2.80;96.30;;;;;;5045231;28;20082;-84
2022/04/20 02:23:59;;;;;;;5.07;4.43;;;2.80;96.30;;;;;;5065649;28;20059;-82
2022/04/20 02:26:26;;;;;;;5.13;4.10;;;2.70;96.40;;;;;;5060564;28;20013;-81
2022/04/20 02:29:04;;;;;;;6.10;4.63;;;2.70;96.50;;;;;;5068004;28;20041;-84
2022/04/20 02:31:31;;;;;;;4.88;4.03;;;2.70;96.50;;;;;;5027258;28;20555;-83
2022/04/20 02:34:00;;;;;;;4.50;3.67;;;2.70;96.50;;;;;;5062714;28;20105;-83
2022/04/20 02:36:31;;;;;;;4.35;3.42;;;2.70;96.50;;;;;;5042149;28;20033;-84
2022/04/20 02:38:57;;;;;;;5.05;4.20;;;2.70;96.50;;;;;;5041451;28;20032;-84
2022/04/20 02:41:23;;;;;;;5.57;4.25;;;2.70;96.60;;;;;;5061355;28;20021;-84
2022/04/20 02:43:50;;;;;;;6.50;4.63;;;2.70;96.20;;;;;;5047424;28;20031;-84
2022/04/20 02:46:16;;;;;;;4.55;3.83;;;2.60;96.20;;;;;;5038153;28;20557;-84
2022/04/20 02:48:42;;;;;;;5.28;4.32;;;2.60;96.30;;;;;;5079589;28;20048;-83
2022/04/20 02:51:08;;;;;;;4.53;3.53;;;2.60;96.50;;;;;;5080367;28;20028;-84
2022/04/20 02:53:37;;;;;;;5.70;4.00;;;2.50;96.60;;;;;;5080863;28;20017;-83
2022/04/20 02:56:03;;;;;;;7.10;4.68;;;2.50;96.70;;;;;;5062702;28;20024;-84
2022/04/20 02:58:30;;;;;;;5.28;4.53;;;2.50;96.60;;;;;;5080217;28;20036;-83
2022/04/20 03:00:56;;;;;;;5.57;4.38;;;2.50;96.80;;;;;;5080276;28;20024;-83
2022/04/20 03:03:21;;;;;;;5.55;4.40;;;2.40;96.70;;;;;;5080230;28;20393;-84
2022/04/20 03:05:48;;;;;;;6.63;4.90;;;2.40;96.90;;;;;;5062390;28;20166;-83
2022/04/20 03:08:14;;;;;;;6.30;4.70;;;2.50;97.00;;;;;;5079649;28;20025;-84
2022/04/20 03:10:40;;;;;;;6.57;5.15;;;2.40;97.10;;;;;;5080572;28;20057;-83
2022/04/20 03:13:07;;;;;;;7.00;4.97;;;2.40;97.20;;;;;;5080700;28;20021;-83
2022/04/20 03:15:33;;;;;;;7.57;5.28;;;2.40;97.30;;;;;;5050558;28;20116;-84
2022/04/20 03:17:58;;;;;;;8.20;5.57;;;2.40;97.40;;;;;;5074345;28;20055;-83
2022/04/20 03:20:24;;;;;;;6.85;5.32;;;2.40;97.40;;;;;;5080646;28;20021;-82
2022/04/20 03:22:52;;;;;;;7.85;5.45;;;2.40;97.40;;;;;;5063321;28;20048;-83
2022/04/20 03:25:19;;;;;;;7.97;6.15;;;2.30;97.60;;;;;;5063606;28;20501;-83
2022/04/20 03:27:47;;;;;;;6.93;5.68;;;2.40;98.00;;;;;;5079666;28;20513;-83
2022/04/20 03:30:14;;;;;;;8.40;6.13;;;2.40;97.80;;;;;;5046745;28;20040;-84
2022/04/20 03:32:46;;;;;;;7.07;5.15;;;2.40;97.80;;;;;;5062890;28;20501;-84
2022/04/20 03:35:12;;;;;;;9.25;5.93;;;2.30;97.90;;;;;;5066588;28;20020;-84
2022/04/20 03:37:39;;;;;;;11.27;7.05;;;2.40;97.90;;;;;;5096563;28;20024;-81
2022/04/20 03:40:08;;;;;;;7.25;6.47;;;2.30;97.90;;;;;;5080295;28;20035;-81
2022/04/20 03:42:34;;;;;;;8.13;6.20;;;2.30;97.90;;;;;;5079352;28;20016;-82
2022/04/20 03:45:00;;;;;;;7.50;6.15;;;2.30;98.20;;;;;;5088162;28;20108;-82
2022/04/20 03:47:26;;;;;;;9.93;6.55;;;2.20;98.30;;;;;;5053054;28;20128;-83
2022/04/20 03:49:52;;;;;;;8.30;6.90;;;2.20;98.30;;;;;;5048256;28;20111;-83
2022/04/20 03:52:19;;;;;;;9.77;7.35;;;2.20;98.40;;;;;;5053108;28;20078;-83
2022/04/20 03:54:44;;;;;;;8.20;6.63;;;2.20;98.40;;;;;;5076262;28;20020;-84
2022/04/20 03:57:10;;;;;;;10.77;7.25;;;2.10;98.60;;;;;;5061702;28;20047;-84
2022/04/20 03:59:37;;;;;;;10.05;6.78;;;2.10;98.80;;;;;;5080144;28;20020;-84
2022/04/20 04:02:05;;;;;;;8.48;6.70;;;2.10;99.00;;;;;;5064017;28;20025;-82
2022/04/20 04:04:32;;;;;;;10.48;6.97;;;2.10;99.10;;;;;;5080284;28;20039;-84
2022/04/20 04:06:58;;;;;;;11.02;7.55;;;2.10;99.00;;;;;;5079555;28;20472;-84
2022/04/20 04:09:24;;;;;;;8.32;7.38;;;2.00;99.00;;;;;;5079571;28;20025;-83
2022/04/20 04:11:50;;;;;;;12.00;8.30;;;2.00;99.30;;;;;;5079431;28;20456;-83
2022/04/20 04:14:17;;;;;;;10.93;8.10;;;1.90;99.40;;;;;;5062202;28;20036;-82
2022/04/20 04:16:43;;;;;;;11.32;8.27;;;1.90;99.50;;;;;;5077605;28;20056;-82
2022/04/20 04:19:11;;;;;;;9.93;7.50;;;1.80;99.80;;;;;;5045277;28;20055;-84
2022/04/20 04:21:38;;;;;;;11.15;8.95;;;1.90;99.90;;;;;;5066179;28;20036;-84
2022/04/20 04:24:08;;;;;;;11.50;9.07;;;1.90;99.90;;;;;;5064317;28;20025;-83
2022/04/20 04:26:35;;;;;;;13.32;9.10;;;1.90;99.90;;;;;;5045557;28;20025;-82
2022/04/20 04:29:01;;;;;;;11.95;8.63;;;1.90;99.90;;;;;;5062150;28;20032;-83
2022/04/20 04:31:28;;;;;;;11.70;8.77;;;1.90;99.90;;;;;;5063165;28;20045;-82
2022/04/20 04:33:53;;;;;;;11.35;7.72;;;2.00;99.90;;;;;;5059941;28;20485;-83
2022/04/20 04:36:19;;;;;;;9.95;7.25;;;2.10;99.90;;;;;;5062946;28;20021;-83
2022/04/20 04:38:45;;;;;;;11.85;9.23;;;2.20;99.90;;;;;;5065835;28;20020;-83
2022/04/20 04:41:10;;;;;;;11.07;7.97;;;2.20;99.90;;;;;;5065882;28;20032;-83
2022/04/20 04:43:36;;;;;;;12.23;8.82;;;2.20;99.90;;;;;;5085988;22;20120;-79
2022/04/20 04:48:48;;;;;;;11.45;8.13;;;2.20;99.90;;;;;;5035682;28;20108;-79
2022/04/20 04:51:15;;;;;;;13.55;9.32;;;2.20;99.90;;;;;;5037273;28;20482;-79
2022/04/20 04:53:41;;;;;;;10.82;8.70;;;2.20;99.90;;;;;;5037578;28;20165;-78
2022/04/20 04:56:07;;;;;;;12.93;9.80;;;2.30;99.90;;;;;;5038896;28;20025;-79
2022/04/20 04:58:33;;;;;;;15.55;11.73;;;2.30;99.90;;;;;;5036909;28;20040;-79
2022/04/20 05:00:59;;;;;;;15.55;11.00;;;2.30;99.90;;;;;;5037533;28;20032;-78
2022/04/20 05:03:25;;;;;;;15.38;10.27;;;2.30;99.90;;;;;;5056467;28;20021;-79
2022/04/20 05:05:52;;;;;;;17.38;12.13;;;2.40;99.90;;;;;;5042496;28;20501;-79
2022/04/20 05:08:17;;;;;;;16.95;10.27;;;2.40;99.90;;;;;;5064407;28;20033;-80
2022/04/20 05:10:43;;;;;;;14.45;9.85;;;2.40;99.90;;;;;;5043902;28;20063;-80
2022/04/20 05:13:09;;;;;;;17.50;11.07;;;2.50;99.90;;;;;;5058133;28;20073;-79
2022/04/20 05:15:36;;;;;;;18.00;10.85;;;2.50;99.90;;;;;;5056267;28;20026;-79
2022/04/20 05:18:02;;;;;;;13.43;10.60;;;2.60;99.90;;;;;;5056371;28;20056;-79
2022/04/20 05:20:28;;;;;;;15.75;11.60;;;2.60;99.90;;;;;;5058944;28;20473;-79
2022/04/20 05:22:54;;;;;;;14.88;10.80;;;2.60;99.90;;;;;;5037109;28;20476;-79
2022/04/20 05:25:20;;;;;;;18.73;12.55;;;2.70;99.80;;;;;;5054891;28;20025;-79
2022/04/20 05:27:46;;;;;;;15.35;11.27;;;2.70;99.60;;;;;;5037167;28;20079;-79
2022/04/20 05:30:15;;;;;;;16.45;11.20;;;2.70;99.60;;;;;;5055467;28;20028;-79
2022/04/20 05:32:42;;;;;;;16.52;11.73;;;2.80;99.70;;;;;;5056219;28;20021;-78
2022/04/20 05:35:09;;;;;;;12.57;9.82;;;2.90;99.60;;;;;;5056897;28;20029;-78
2022/04/20 05:43:04;;;;;;;14.45;11.30;;;3.10;98.60;;;;;;5059766;28;20098;-78
2022/04/20 05:45:29;;;;;;;16.00;10.95;;;3.10;98.50;;;;;;5029626;28;20038;-78
2022/04/20 05:47:58;;;;;;;14.98;11.50;;;3.10;98.90;;;;;;5047152;28;20442;-79
2022/04/20 05:50:24;;;;;;;19.42;11.43;;;3.10;99.20;;;;;;5037244;28;20025;-79
2022/04/20 05:52:50;;;;;;;18.10;11.23;;;3.30;98.90;;;;;;5036927;28;20025;-79
2022/04/20 05:55:16;;;;;;;16.52;11.18;;;3.30;98.40;;;;;;5041693;28;20017;-79
2022/04/20 05:57:42;;;;;;;17.20;10.93;;;3.40;98.50;;;;;;5048189;28;20033;-78
2022/04/20 06:00:08;;;;;;;13.40;10.73;;;3.50;98.50;;;;;;5054481;28;20040;-78
2022/04/20 06:02:34;;;;;;;16.15;10.63;;;3.50;98.20;;;;;;5036787;28;20501;-78
2022/04/20 06:05:01;;;;;;;15.35;10.25;;;3.60;98.00;;;;;;5042681;28;20053;-79
2022/04/20 06:07:27;;;;;;;15.50;11.07;;;3.70;97.50;;;;;;5044235;28;20073;-79
2022/04/20 06:09:53;;;;;;;14.43;10.63;;;3.70;97.40;;;;;;5018345;28;20017;-79
2022/04/20 06:12:22;;;;;;;16.73;10.35;;;3.80;97.50;;;;;;5043038;28;20071;-78
2022/04/20 06:14:48;;;;;;;17.90;10.30;;;3.80;97.50;;;;;;5026714;28;20385;-79
2022/04/20 06:17:14;;;;;;;12.65;10.00;;;4.00;97.20;;;;;;5044771;28;20025;-80
2022/04/20 06:19:39;;;;;;;12.75;9.45;;;4.10;96.50;;;;;;5057910;28;20025;-79
2022/04/20 06:22:05;;;;;;;12.98;9.40;;;4.20;96.30;;;;;;5039707;28;20113;-79
2022/04/20 06:24:31;;;;;;;12.80;8.50;;;4.30;95.90;;;;;;5056494;28;20044;-79
2022/04/20 06:26:56;;;;;;;14.63;9.15;;;4.50;96.20;;;;;;5056620;28;20097;-78
2022/04/20 06:29:22;;;;;;;9.52;7.70;;;6.30;95.90;;;;;;5056690;28;20030;-80
2022/04/20 06:31:48;;;;;;;9.07;6.88;;;10.30;85.00;;;;;;5056694;28;20448;-79
2022/04/20 06:34:14;;;;;;;8.93;6.28;;;13.10;72.80;;;;;;5058113;28;20100;-80
2022/04/20 06:36:39;;;;;;;10.27;6.50;;;14.80;61.80;;;;;;5050440;28;20071;-80
2022/04/20 06:39:05;;;;;;;9.27;7.38;;;15.80;54.60;;;;;;5042295;28;20041;-79
2022/04/20 06:41:31;;;;;;;15.85;6.47;;;16.00;52.60;;;;;;5038319;28;20049;-80
2022/04/20 06:43:57;;;;;;;11.52;6.68;;;13.30;53.70;;;;;;5040551;28;20481;-79
2022/04/20 06:46:23;;;;;;;10.18;7.53;;;10.70;60.10;;;;;;5050760;28;20029;-79
2022/04/20 06:48:49;;;;;;;10.50;8.23;;;8.80;66.90;;;;;;5038611;28;20021;-79
2022/04/20 06:51:15;;;;;;;12.13;7.80;;;7.50;72.90;;;;;;5042831;28;20060;-78
2022/04/20 06:59:09;;;;;;;11.45;7.43;;;6.00;84.80;;;;;;5040573;28;20175;-79
2022/04/20 07:01:35;;;;;;;9.60;7.60;;;5.90;85.10;;;;;;5040486;28;20521;-79
2022/04/20 07:04:01;;;;;;;11.23;7.10;;;5.80;86.50;;;;;;5039029;28;20022;-78
2022/04/20 07:06:27;;;;;;;11.15;7.25;;;5.80;87.00;;;;;;5045811;28;20025;-78
2022/04/20 07:08:54;;;;;;;8.93;6.20;;;5.80;87.40;;;;;;5051637;28;20026;-77
2022/04/20 07:11:19;;;;;;;9.35;7.50;;;5.90;87.10;;;;;;5056701;28;20048;-78
2022/04/20 07:13:48;;;;;;;8.23;6.53;;;6.00;86.30;;;;;;5054908;28;20045;-80
2022/04/20 07:16:16;;;;;;;13.77;8.40;;;6.10;86.50;;;;;;5061338;28;20033;-79
2022/04/20 07:18:42;;;;;;;10.32;7.28;;;6.10;85.50;;;;;;5068671;28;20029;-79
2022/04/20 07:21:08;;;;;;;13.05;7.07;;;6.10;85.00;;;;;;5047832;28;20085;-78
2022/04/20 07:23:33;;;;;;;8.93;6.53;;;6.10;84.80;;;;;;5040899;28;20026;-78
2022/04/20 07:25:59;;;;;;;9.07;6.25;;;6.10;85.50;;;;;;5036632;28;20139;-78
2022/04/20 07:28:25;;;;;;;13.25;7.90;;;6.20;84.90;;;;;;5036794;28;20073;-79
2022/04/20 07:30:50;;;;;;;12.52;6.78;;;6.30;82.30;;;;;;5022402;28;20040;-78
2022/04/20 07:33:16;;;;;;;9.05;6.97;;;6.30;82.20;;;;;;5035627;28;20017;-78
2022/04/20 07:35:46;;;;;;;10.43;7.05;;;6.30;82.10;;;;;;5020383;28;20049;-78
2022/04/20 07:38:12;;;;;;;8.77;7.07;;;6.40;82.50;;;;;;5039925;28;20393;-79
2022/04/20 07:40:39;;;;;;;8.98;7.15;;;6.50;82.20;;;;;;5043967;28;20036;-79
2022/04/20 07:43:05;;;;;;;10.95;7.82;;;6.70;82.00;;;;;;5039391;28;20030;-79
2022/04/20 07:45:31;;;;;;;12.88;8.48;;;6.90;81.40;;;;;;5044240;28;20037;-79
2022/04/20 07:47:57;;;;;;;10.50;7.88;;;7.00;80.40;;;;;;5044823;28;20053;-79
2022/04/20 07:50:24;;;;;;;9.65;7.18;;;7.10;81.00;;;;;;5031244;28;20079;-79
2022/04/20 07:52:51;;;;;;;9.27;6.97;;;7.20;80.10;;;;;;5070821;28;20073;-79
2022/04/20 07:55:23;;;;;;;11.32;7.55;;;7.20;80.30;;;;;;5048783;28;20116;-79
2022/04/20 07:57:55;;;;;;;9.48;7.00;;;7.40;78.60;;;;;;5046127;28;20029;-80
2022/04/20 08:00:22;;;;;;;11.73;7.38;;;7.60;78.60;;;;;;5065144;28;20033;-79
2022/04/20 08:02:49;;;;;;;7.95;6.47;;;7.60;78.00;;;;;;5057053;28;20033;-80
2022/04/20 08:05:16;;;;;;;8.05;6.18;;;7.80;78.40;;;;;;5045141;28;20025;-78
2022/04/20 08:07:43;;;;;;;7.40;6.07;;;8.00;77.00;;;;;;5043063;28;20451;-79
2022/04/20 08:10:10;;;;;;;10.25;6.25;;;8.10;74.60;;;;;;5026050;28;20429;-81
2022/04/20 08:12:38;;;;;;;7.90;6.10;;;8.30;74.40;;;;;;5044343;28;20032;-79
2022/04/20 08:15:04;;;;;;;6.63;5.45;;;8.50;72.80;;;;;;5018253;28;20081;-80
2022/04/20 08:17:31;;;;;;;7.30;5.78;;;8.70;72.20;;;;;;5057011;28;20025;-80
2022/04/20 08:19:57;;;;;;;6.97;4.75;;;9.00;70.50;;;;;;5044107;28;20026;-79
2022/04/20 08:22:24;;;;;;;6.28;4.95;;;9.10;67.40;;;;;;5043514;28;20039;-79
2022/04/20 08:24:50;;;;;;;5.30;4.18;;;9.10;66.60;;;;;;5037305;28;20032;-79
2022/04/20 08:27:16;;;;;;;6.03;4.45;;;9.20;65.30;;;;;;5062759;28;20039;-81
2022/04/20 08:29:44;;;;;;;6.10;4.03;;;9.30;64.10;;;;;;5056553;28;20084;-82
2022/04/20 08:32:10;;;;;;;7.05;4.05;;;9.50;64.30;;;;;;5037821;28;20025;-81
2022/04/20 08:34:36;;;;;;;5.15;4.38;;;9.60;63.50;;;;;;5044193;28;20016;-81
2022/04/20 08:37:02;;;;;;;9.68;5.03;;;9.60;62.40;;;;;;5061311;28;20044;-79
2022/04/20 08:39:27;;;;;;;5.80;4.22;;;9.60;62.10;;;;;;5069581;28;20027;-80
2022/04/20 08:41:54;;;;;;;5.60;4.55;;;9.70;62.50;;;;;;5064645;28;20033;-81
2022/04/20 08:44:27;;;;;;;6.57;3.97;;;9.90;60.90;;;;;;5035292;28;20029;-80
2022/04/20 08:46:54;;;;;;;5.88;4.43;;;10.20;60.50;;;;;;5064605;28;20079;-81
2022/04/20 08:49:21;;;;;;;6.75;4.10;;;10.40;58.90;;;;;;5042754;28;20076;-81
2022/04/20 08:54:34;;;;;;;4.45;3.97;;;10.50;57.40;;;;;;5049830;28;20032;-81
2022/04/20 08:57:15;;;;;;;5.57;3.92;;;10.50;57.50;;;;;;5066200;28;20025;-81
2022/04/20 08:59:43;;;;;;;6.65;3.83;;;10.70;56.90;;;;;;5045114;28;20157;-80
2022/04/20 09:02:11;;;;;;;5.75;4.28;;;10.80;56.10;;;;;;5059033;28;20028;-80
2022/04/20 09:04:37;;;;;;;5.75;4.20;;;11.00;55.00;;;;;;5061666;28;20021;-80
2022/04/20 09:07:04;;;;;;;5.43;4.00;;;11.00;54.30;;;;;;5040938;28;20133;-81
2022/04/20 09:09:30;;;;;;;4.68;3.80;;;10.90;55.20;;;;;;5042953;28;20036;-81
2022/04/20 09:12:07;;;;;;;4.78;3.70;;;10.90;53.30;;;;;;5060190;28;20033;-81
2022/04/20 09:14:33;;;;;;;3.85;3.28;;;11.00;53.30;;;;;;5043734;28;20052;-81
2022/04/20 09:17:01;;;;;;;3.97;3.00;;;11.10;52.40;;;;;;5047270;28;20026;-81
2022/04/20 09:19:28;;;;;;;4.25;3.70;;;11.20;51.60;;;;;;5043657;28;20462;-81
2022/04/20 09:21:55;;;;;;;3.53;2.95;;;11.50;51.40;;;;;;5041118;28;20104;-81
2022/04/20 09:24:21;;;;;;;4.40;2.97;;;11.60;49.70;;;;;;5051911;28;20014;-81
2022/04/20 09:26:56;;;;;;;6.45;3.75;;;11.50;50.70;;;;;;5065006;28;20029;-82
2022/04/20 09:29:23;;;;;;;4.65;3.38;;;11.60;49.80;;;;;;5056237;28;20104;-80
2022/04/20 09:31:53;;;;;;;6.07;3.95;;;11.70;50.00;;;;;;5060177;28;20036;-81
2022/04/20 09:34:33;;;;;;;5.38;3.88;;;11.80;50.40;;;;;;5058000;28;20048;-81
2022/04/20 09:37:12;;;;;;;4.35;3.03;;;11.90;49.40;;;;;;5043289;28;20036;-82
2022/04/20 09:39:38;;;;;;;5.07;3.28;;;12.10;49.60;;;;;;5051945;28;20017;-80
2022/04/20 09:42:06;;;;;;;3.08;2.67;;;12.50;48.50;;;;;;5023152;28;20036;-81
2022/04/20 09:44:32;;;;;;;3.85;3.17;;;12.60;47.40;;;;;;5027851;28;20037;-81
2022/04/20 09:49:54;;;;;;;7.40;3.88;;;12.70;47.00;;;;;;5058333;28;20052;-82
2022/04/20 09:52:21;;;;;;;4.57;3.58;;;12.70;45.10;;;;;;5062026;28;20024;-82
2022/04/20 09:54:55;;;;;;;3.53;2.50;;;12.50;44.70;;;;;;5056044;28;20045;-81
2022/04/20 09:57:21;;;;;;;4.45;2.97;;;12.50;45.40;;;;;;5043344;28;20053;-80
2022/04/20 10:00:10;;;;;;;4.25;2.97;;;12.70;44.30;;;;;;5063123;28;20025;-82
2022/04/20 10:02:48;;;;;;;5.45;2.95;;;12.70;43.30;;;;;;5059879;28;20025;-82
2022/04/20 10:05:19;;;;;;;3.03;2.75;;;12.60;43.00;;;;;;5051389;28;20049;-82
2022/04/20 10:07:45;;;;;;;7.15;3.15;;;12.70;43.40;;;;;;5057788;28;20025;-84
2022/04/20 10:10:11;;;;;;;7.55;4.25;;;12.80;43.10;;;;;;5039102;28;20431;-82
2022/04/20 10:12:42;;;;;;;5.70;3.60;;;13.00;43.20;;;;;;5041826;28;20083;-83
2022/04/20 10:17:56;;;;;;;3.33;2.88;;;13.00;42.10;;;;;;5048363;28;20099;-82
2022/04/20 10:20:25;;;;;;;4.65;2.75;;;13.10;41.20;;;;;;5054504;28;20104;-80
2022/04/20 10:22:52;;;;;;;4.32;2.92;;;13.40;40.70;;;;;;5037345;28;20036;-81
2022/04/20 10:25:18;;;;;;;6.65;3.90;;;13.30;40.40;;;;;;5049885;28;20032;-79
2022/04/20 10:28:13;;;;;;;4.40;3.38;;;13.30;40.70;;;;;;5056145;28;20037;-79
2022/04/20 10:31:02;;;;;;;7.72;3.95;;;13.30;46.70;;;;;;5026510;28;20490;-80
2022/04/20 10:33:31;;;;;;;5.53;3.92;;;13.10;50.30;;;;;;5058012;28;20073;-80
2022/04/20 10:36:04;;;;;;;6.13;3.88;;;13.00;48.90;;;;;;5040947;28;20497;-78
2022/04/20 10:38:32;;;;;;;4.00;3.55;;;12.90;43.90;;;;;;5045718;28;20096;-79
2022/04/20 10:41:10;;;;;;;7.35;3.55;;;12.90;45.70;;;;;;5058670;28;20024;-81
2022/04/20 10:43:42;;;;;;;7.97;3.60;;;13.10;40.60;;;;;;5064582;22;21140;-82
2022/04/20 10:46:17;;;;;;;5.35;3.75;;;13.00;40.90;;;;;;5057527;28;20511;-82
2022/04/20 10:49:00;;;;;;;5.13;3.97;;;13.10;42.10;;;;;;5051671;28;20116;-82
2022/04/20 10:51:40;;;;;;;3.65;3.35;;;13.20;42.10;;;;;;5061960;28;20044;-82
2022/04/20 10:54:18;;;;;;;4.18;3.30;;;13.20;41.90;;;;;;5056949;28;20028;-83
2022/04/20 10:57:09;;;;;;;3.78;3.28;;;13.40;42.50;;;;;;5054236;28;20021;-83
2022/04/20 10:59:35;;;;;;;4.68;4.13;;;13.70;41.80;;;;;;5058266;28;20036;-80
2022/04/20 11:02:06;;;;;;;4.22;3.53;;;13.90;42.10;;;;;;5063384;28;20056;-80
2022/04/20 11:04:37;;;;;;;5.95;3.72;;;14.20;42.70;;;;;;5057826;28;20025;-80
2022/04/20 11:07:04;;;;;;;5.97;3.17;;;14.50;42.00;;;;;;5082652;28;20369;-80
2022/04/20 11:09:52;;;;;;;4.28;3.10;;;14.70;42.30;;;;;;5085679;28;20047;-80
2022/04/20 11:18:38;;;;;;;5.10;3.88;;;14.80;41.50;;;;;;5064014;28;20044;-79
2022/04/20 11:18:39;;;;;;;7.30;4.20;;;14.50;42.70;;;;;;5065006;28;20295;-82
2022/04/20 11:21:05;;;;;;;4.57;3.67;;;14.20;43.80;;;;;;5066076;28;20025;-80
2022/04/20 11:23:53;;;;;;;5.70;4.18;;;14.20;44.60;;;;;;5065183;28;20066;-79
2022/04/20 11:26:20;;;;;;;5.95;3.80;;;14.00;43.50;;;;;;5047267;28;20045;-80
2022/04/20 11:28:48;;;;;;;7.32;4.50;;;13.80;44.10;;;;;;5066330;28;20032;-81
2022/04/20 11:31:13;;;;;;;7.50;4.28;;;13.90;44.40;;;;;;5041400;28;20029;-80
2022/04/20 11:33:39;;;;;;;4.68;4.00;;;13.80;44.00;;;;;;5044933;28;20032;-82
2022/04/20 11:36:06;;;;;;;3.78;3.38;;;13.90;42.80;;;;;;5044935;28;20021;-82
2022/04/20 11:38:36;;;;;;;2.88;2.63;;;14.00;43.40;;;;;;5060498;28;20465;-81
2022/04/20 11:41:01;;;;;;;5.70;4.00;;;14.40;42.60;;;;;;5064296;28;20036;-82
2022/04/20 11:43:27;;;;;;;5.70;3.30;;;14.80;41.00;;;;;;5063632;28;20033;-82
2022/04/20 11:45:53;;;;;;;3.85;3.40;;;14.60;41.70;;;;;;5062894;28;20029;-81
2022/04/20 11:48:22;;;;;;;7.10;3.72;;;14.50;42.00;;;;;;5066896;28;20032;-82
2022/04/20 11:50:56;;;;;;;4.43;3.10;;;14.40;42.50;;;;;;5061859;28;20108;-82
2022/04/20 11:53:30;;;;;;;4.55;3.40;;;14.40;43.40;;;;;;5060827;28;20021;-82
2022/04/20 11:55:57;;;;;;;5.22;3.55;;;14.60;43.40;;;;;;5063191;28;20021;-82
2022/04/20 11:58:22;;;;;;;6.30;4.15;;;14.60;42.00;;;;;;5059611;28;20099;-83
2022/04/20 12:01:01;;;;;;;4.50;3.78;;;14.70;42.30;;;;;;5063983;28;20025;-82
2022/04/20 12:03:41;;;;;;;5.28;3.13;;;14.50;42.80;;;;;;5064591;28;20061;-83
2022/04/20 12:06:10;;;;;;;5.07;3.60;;;14.50;43.30;;;;;;5063536;28;20021;-82
2022/04/20 12:08:40;;;;;;;3.70;2.83;;;14.80;42.50;;;;;;5042668;28;20029;-82
2022/04/20 12:11:15;;;;;;;4.97;2.70;;;14.80;41.70;;;;;;5046843;28;20025;-83
2022/04/20 12:13:58;;;;;;;7.88;3.00;;;15.00;42.00;;;;;;5055005;28;20017;-80
2022/04/20 12:16:24;;;;;;;5.22;3.25;;;15.20;40.90;;;;;;5055688;28;20052;-80
2022/04/20 12:18:51;;;;;;;5.07;3.42;;;15.10;40.50;;;;;;5056439;28;20013;-81
2022/04/20 12:21:43;;;;;;;4.53;2.63;;;15.00;41.10;;;;;;5056014;28;20037;-80
2022/04/20 12:24:33;;;;;;;4.93;3.13;;;15.20;41.10;;;;;;5052247;28;20041;-81
2022/04/20 12:27:47;;;;;;;5.57;3.13;;;15.20;40.00;;;;;;5054492;28;20036;-81
2022/04/20 12:30:45;;;;;;;5.10;3.25;;;15.20;40.80;;;;;;5047993;28;20059;-83
2022/04/20 12:33:31;;;;;;;3.58;3.28;;;15.10;41.10;;;;;;5043124;28;20022;-81
2022/04/20 12:36:11;;;;;;;3.55;3.25;;;15.20;41.10;;;;;;5044648;28;20066;-81
2022/04/20 12:38:48;;;;;;;4.13;3.60;;;15.40;40.70;;;;;;5052093;28;20029;-82
2022/04/20 12:41:45;;;;;;;4.72;3.10;;;15.30;40.40;;;;;;5058017;28;20113;-83
2022/04/20 12:44:36;;;;;;;4.57;3.00;;;15.40;39.70;;;;;;5063711;28;20029;-83
2022/04/20 12:47:11;;;;;;;2.75;2.55;;;15.50;40.10;;;;;;5062655;28;20028;-81
2022/04/20 12:49:38;;;;;;;4.03;3.03;;;15.50;40.20;;;;;;5058725;28;20025;-81
2022/04/20 12:52:12;;;;;;;3.47;2.85;;;15.60;39.50;;;;;;5042147;28;20377;-81
2022/04/20 12:54:38;;;;;;;4.28;3.33;;;15.80;39.30;;;;;;5060685;28;20048;-81
2022/04/20 13:03:04;;;;;;;3.03;2.67;;;15.60;37.90;;;;;;5058652;28;20098;-82
2022/04/20 13:05:37;;;;;;;3.25;2.28;;;15.90;37.70;;;;;;5058159;28;20021;-81
2022/04/20 13:08:07;;;;;;;2.80;2.55;;;16.00;37.90;;;;;;5058234;28;20025;-82
2022/04/20 13:10:41;;;;;;;3.15;2.65;;;16.30;37.10;;;;;;5056478;28;20163;-82
2022/04/20 13:13:07;;;;;;;3.25;2.95;;;16.10;37.00;;;;;;5039031;28;20048;-81
2022/04/20 13:15:34;;;;;;;4.03;3.55;;;16.00;37.50;;;;;;5039221;28;20385;-82
2022/04/20 13:18:00;;;;;;;5.43;3.58;;;15.90;38.40;;;;;;5056703;28;20033;-82
2022/04/20 13:20:28;;;;;;;5.03;4.35;;;15.70;39.40;;;;;;5056783;28;20112;-83
2022/04/20 13:22:54;;;;;;;4.20;3.67;;;15.80;39.50;;;;;;5055489;28;20020;-82
2022/04/20 13:28:05;;;;;;;6.13;3.85;;;15.80;39.80;;;;;;5059000;28;20132;-80
2022/04/20 13:30:36;;;;;;;4.22;3.67;;;15.90;39.00;;;;;;5076786;28;20504;-80
2022/04/20 13:33:04;;;;;;;3.58;3.25;;;15.80;39.60;;;;;;5076037;28;20097;-78
2022/04/20 13:35:30;;;;;;;4.47;4.07;;;15.90;39.90;;;;;;5060348;28;20075;-80
2022/04/20 13:37:56;;;;;;;3.80;3.50;;;16.00;39.70;;;;;;5059062;28;20032;-80